createdAt,value
2019-05-12T00:00:43.776Z,97467.80
2019-05-12T00:03:10.589Z,97467.00
2019-05-12T00:05:38.292Z,97470.92
2019-05-12T00:08:05.307Z,97470.41
2019-05-12T00:10:32.133Z,97472.22
2019-05-12T00:12:58.915Z,97464.89
2019-05-12T00:15:27.763Z,97464.89
2019-05-12T00:17:54.244Z,97461.26
2019-05-12T00:20:21.036Z,97454.95
2019-05-12T00:22:49.449Z,97451.31
2019-05-12T00:25:18.132Z,97453.13
2019-05-12T00:27:45.102Z,97453.93
2019-05-12T00:30:13.527Z,97450.20
2019-05-12T00:32:40.309Z,97452.82
2019-05-12T00:35:07.852Z,97458.36
2019-05-12T00:37:34.896Z,97463.08
2019-05-12T00:40:01.655Z,97455.23
2019-05-12T00:42:28.778Z,97472.22
2019-05-12T00:44:55.688Z,97468.81
2019-05-12T00:47:22.457Z,97474.05
2019-05-12T00:49:50.348Z,97477.17
2019-05-12T00:52:18.728Z,97485.30
2019-05-12T00:54:48.092Z,97498.88
2019-05-12T00:57:14.226Z,97500.19
2019-05-12T00:59:41.085Z,97507.52
2019-05-12T01:02:08.039Z,97514.56
2019-05-12T01:04:34.939Z,97521.61
2019-05-12T01:07:01.709Z,97520.30
2019-05-12T01:09:28.527Z,97528.14
2019-05-12T01:11:55.294Z,97532.55
2019-05-12T01:14:22.083Z,97538.60
2019-05-12T01:16:48.873Z,97537.30
2019-05-12T01:19:18.343Z,97542.01
2019-05-12T01:21:44.549Z,97549.05
2019-05-12T01:24:11.322Z,97556.90
2019-05-12T01:26:38.817Z,97552.98
2019-05-12T01:29:08.236Z,97555.59
2019-05-12T01:31:37.797Z,97560.82
2019-05-12T01:34:04.433Z,97564.74
2019-05-12T01:36:31.320Z,97569.46
2019-05-12T01:38:59.139Z,97569.14
2019-05-12T01:41:28.698Z,97576.98
2019-05-12T01:43:55.152Z,97583.52
2019-05-12T01:46:21.936Z,97584.34
2019-05-12T01:48:48.764Z,97591.68
2019-05-12T01:51:17.308Z,97596.59
2019-05-12T01:53:44.041Z,97607.05
2019-05-12T01:56:10.808Z,97610.97
2019-05-12T01:58:38.185Z,97620.12
2019-05-12T02:01:05.170Z,97623.25
2019-05-12T02:03:31.994Z,97621.94
2019-05-12T02:06:00.416Z,97627.96
2019-05-12T02:08:38.401Z,97637.94
2019-05-12T02:11:23.474Z,97632.39
2019-05-12T02:13:50.296Z,97646.27
2019-05-12T02:16:18.812Z,97658.02
2019-05-12T02:18:45.578Z,97655.63
2019-05-12T02:21:12.358Z,97665.06
2019-05-12T02:23:39.155Z,97673.94
2019-05-12T02:26:08.131Z,97670.02
2019-05-12T02:28:34.426Z,97680.47
2019-05-12T02:31:01.238Z,97685.70
2019-05-12T02:33:28.322Z,97687.00
2019-05-12T02:35:55.105Z,97690.13
2019-05-12T02:38:24.952Z,97698.48
2019-05-12T02:40:50.453Z,97701.38
2019-05-12T02:43:17.234Z,97695.36
2019-05-12T02:45:44.642Z,97704.50
2019-05-12T02:48:14.498Z,97711.33
2019-05-12T02:50:40.439Z,97715.25
2019-05-12T02:53:07.426Z,97725.93
2019-05-12T02:55:35.076Z,97730.65
2019-05-12T02:58:05.022Z,97734.56
2019-05-12T03:00:30.981Z,97745.82
2019-05-12T03:02:57.776Z,97754.17
2019-05-12T03:05:24.920Z,97747.86
2019-05-12T03:07:55.112Z,97749.97
2019-05-12T03:10:20.438Z,97749.97
2019-05-12T03:12:47.207Z,97754.69
2019-05-12T03:15:15.263Z,97751.56
2019-05-12T03:17:44.297Z,97757.02
2019-05-12T03:20:10.786Z,97767.75
2019-05-12T03:22:37.633Z,97769.06
2019-05-12T03:25:15.300Z,97779.80
2019-05-12T03:27:35.165Z,97791.28
2019-05-12T03:30:06.216Z,97791.28
2019-05-12T03:32:29.938Z,97798.33
2019-05-12T03:34:58.159Z,97809.58
2019-05-12T03:37:30.712Z,97828.39
2019-05-12T03:39:54.525Z,97815.03
2019-05-12T03:42:24.823Z,97816.12
2019-05-12T03:44:49.929Z,97732.75
2019-05-12T03:47:16.699Z,97821.05
2019-05-12T03:49:45.403Z,97833.84
2019-05-12T03:52:15.057Z,97848.22
2019-05-12T03:54:40.679Z,97848.22
2019-05-12T03:57:07.450Z,97853.73
2019-05-12T03:59:34.908Z,97859.98
2019-05-12T04:02:04.751Z,97855.55
2019-05-12T04:04:30.424Z,97859.98
2019-05-12T04:06:57.199Z,97868.63
2019-05-12T04:09:24.673Z,97872.25
2019-05-12T04:11:54.666Z,97875.66
2019-05-12T04:14:20.141Z,97886.12
2019-05-12T04:16:46.923Z,97887.42
2019-05-12T04:19:14.687Z,97893.16
2019-05-12T04:21:44.602Z,97890.55
2019-05-12T04:24:10.377Z,97893.67
2019-05-12T04:26:37.164Z,97896.58
2019-05-12T04:29:05.097Z,97900.20
2019-05-12T04:31:34.640Z,97911.25
2019-05-12T04:34:00.719Z,97906.74
2019-05-12T04:36:27.540Z,97920.55
2019-05-12T04:38:55.580Z,97919.81
2019-05-12T04:41:25.635Z,97929.47
2019-05-12T04:43:51.192Z,97938.91
2019-05-12T04:46:17.994Z,97951.19
2019-05-12T04:48:45.504Z,97953.29
2019-05-12T04:51:15.187Z,97961.64
2019-05-12T04:53:44.648Z,97970.50
2019-05-12T04:56:18.944Z,97976.02
2019-05-12T04:58:38.083Z,97972.61
2019-05-12T05:01:06.450Z,97991.41
2019-05-12T05:03:34.933Z,97992.72
2019-05-12T05:06:04.490Z,97990.91
2019-05-12T05:08:30.739Z,98005.28
2019-05-12T05:10:57.526Z,98004.19
2019-05-12T05:13:24.542Z,98011.02
2019-05-12T05:15:51.499Z,98012.33
2019-05-12T05:18:18.278Z,98020.67
2019-05-12T05:20:45.058Z,98018.57
2019-05-12T05:23:13.912Z,98027.21
2019-05-12T05:25:40.360Z,98041.80
2019-05-12T05:28:07.158Z,98043.69
2019-05-12T05:30:34.442Z,98049.43
2019-05-12T05:33:01.392Z,98054.66
2019-05-12T05:35:28.939Z,98063.81
2019-05-12T05:37:56.698Z,98066.42
2019-05-12T05:40:25.964Z,98070.85
2019-05-12T05:42:54.152Z,98075.57
2019-05-12T05:45:24.149Z,98068.23
2019-05-12T05:47:49.197Z,98075.06
2019-05-12T05:50:18.446Z,98081.60
2019-05-12T05:52:44.580Z,98080.51
2019-05-12T05:55:19.696Z,98089.95
2019-05-12T05:57:39.942Z,98096.48
2019-05-12T06:00:16.421Z,98094.38
2019-05-12T06:02:40.241Z,98100.11
2019-05-12T06:05:04.458Z,98106.44
2019-05-12T06:07:37.716Z,98016.74
2019-05-12T06:09:59.953Z,98117.91
2019-05-12T06:12:26.822Z,98114.78
2019-05-12T06:14:55.231Z,98123.94
2019-05-12T06:17:23.679Z,98133.88
2019-05-12T06:19:50.579Z,98133.88
2019-05-12T06:22:18.439Z,98138.31
2019-05-12T06:24:49.189Z,98143.03
2019-05-12T06:27:19.511Z,98139.63
2019-05-12T06:29:43.763Z,98141.73
2019-05-12T06:32:11.127Z,98155.30
2019-05-12T06:34:37.981Z,98159.73
2019-05-12T06:37:11.820Z,98164.45
2019-05-12T06:39:34.335Z,98174.11
2019-05-12T06:42:11.554Z,98073.10
2019-05-12T06:44:29.731Z,98179.84
2019-05-12T06:47:03.301Z,98181.45
2019-05-12T06:49:25.065Z,98187.19
2019-05-12T06:51:53.749Z,98189.80
2019-05-12T06:54:20.418Z,98191.91
2019-05-12T06:56:50.070Z,98196.63
2019-05-12T06:59:15.702Z,98198.44
2019-05-12T07:01:44.763Z,98204.97
2019-05-12T07:04:11.094Z,98204.97
2019-05-12T07:06:37.886Z,98200.25
2019-05-12T07:09:09.737Z,98206.28
2019-05-12T07:11:42.571Z,98212.02
2019-05-12T07:14:07.804Z,98213.33
2019-05-12T07:16:33.987Z,98221.67
2019-05-12T07:19:00.336Z,98219.36
2019-05-12T07:21:27.437Z,98229.02
2019-05-12T07:23:54.454Z,98227.41
2019-05-12T07:26:23.400Z,98235.55
2019-05-12T07:28:49.784Z,98240.27
2019-05-12T07:31:16.544Z,98241.58
2019-05-12T07:33:45.969Z,98242.88
2019-05-12T07:36:13.799Z,98244.19
2019-05-12T07:38:40.311Z,98248.70
2019-05-12T07:41:10.622Z,98242.38
2019-05-12T07:43:35.618Z,98245.80
2019-05-12T07:46:06.902Z,98255.74
2019-05-12T07:48:33.259Z,98251.82
2019-05-12T07:51:00.763Z,98259.96
2019-05-12T07:53:27.770Z,98261.77
2019-05-12T07:55:54.550Z,98270.42
2019-05-12T07:58:23.736Z,98268.31
2019-05-12T08:00:53.973Z,98192.31
2019-05-12T08:03:21.263Z,98277.46
2019-05-12T08:05:51.370Z,98271.72
2019-05-12T08:08:15.376Z,98295.77
2019-05-12T08:10:44.249Z,98271.72
2019-05-12T08:13:10.651Z,98276.45
2019-05-12T08:15:39.840Z,98281.17
2019-05-12T08:18:08.099Z,98284.29
2019-05-12T08:20:34.637Z,98281.38
2019-05-12T08:23:07.208Z,98288.22
2019-05-12T08:25:30.048Z,98292.94
2019-05-12T08:28:11.060Z,98289.52
2019-05-12T08:30:25.337Z,98296.86
2019-05-12T08:32:56.341Z,98298.17
2019-05-12T08:35:29.408Z,98302.89
2019-05-12T08:37:49.194Z,98312.04
2019-05-12T08:40:15.982Z,98313.05
2019-05-12T08:42:43.685Z,98316.17
2019-05-12T08:45:15.204Z,98316.97
2019-05-12T08:47:39.234Z,98321.99
2019-05-12T08:50:06.031Z,98328.53
2019-05-12T08:52:37.314Z,98330.55
2019-05-12T08:55:01.321Z,98333.97
2019-05-12T08:57:34.818Z,98334.77
2019-05-12T09:00:03.042Z,98333.97
2019-05-12T09:02:25.090Z,98334.77
2019-05-12T09:04:55.554Z,98340.00
2019-05-12T09:07:20.385Z,98344.22
2019-05-12T09:09:47.144Z,98349.95
2019-05-12T09:12:14.124Z,98350.45
2019-05-12T09:14:43.489Z,98355.69
2019-05-12T09:17:09.528Z,98360.91
2019-05-12T09:19:36.305Z,98370.06
2019-05-12T09:22:05.548Z,98368.25
2019-05-12T09:24:33.360Z,98367.45
2019-05-12T09:27:07.024Z,98382.12
2019-05-12T09:29:28.666Z,98379.52
2019-05-12T09:31:59.357Z,98377.70
2019-05-12T09:34:23.972Z,98378.50
2019-05-12T09:36:51.954Z,98386.85
2019-05-12T09:39:19.273Z,98393.39
2019-05-12T09:41:49.606Z,98395.50
2019-05-12T09:44:14.557Z,98396.00
2019-05-12T09:46:41.331Z,98399.42
2019-05-12T09:49:08.139Z,98399.42
2019-05-12T09:51:41.351Z,98400.22
2019-05-12T09:54:05.217Z,98401.02
2019-05-12T09:56:34.052Z,98406.76
2019-05-12T09:59:02.916Z,98410.98
2019-05-12T10:01:29.181Z,98411.31
2019-05-12T10:03:57.429Z,98414.90
2019-05-12T10:06:24.578Z,98410.98
2019-05-12T10:08:54.637Z,98414.09
2019-05-12T10:11:20.939Z,98418.52
2019-05-12T10:13:47.915Z,98419.33
2019-05-12T10:16:14.703Z,98419.33
2019-05-12T10:18:45.376Z,98423.58
2019-05-12T10:21:14.842Z,98426.99
2019-05-12T10:23:38.500Z,98430.11
2019-05-12T10:26:09.853Z,98436.83
2019-05-12T10:28:34.000Z,98438.43
2019-05-12T10:31:00.770Z,98441.05
2019-05-12T10:33:27.559Z,98441.88
2019-05-12T10:35:54.338Z,98441.55
2019-05-12T10:38:23.970Z,98444.50
2019-05-12T10:40:49.950Z,98445.30
2019-05-12T10:43:16.739Z,98453.14
2019-05-12T10:45:44.209Z,98454.45
2019-05-12T10:48:11.108Z,98453.64
2019-05-12T10:50:37.882Z,98454.95
2019-05-12T10:53:04.884Z,98450.20
2019-05-12T10:55:33.474Z,98444.97
2019-05-12T10:58:05.731Z,98450.20
2019-05-12T11:00:28.801Z,98449.73
2019-05-12T11:02:55.575Z,98457.57
2019-05-12T11:05:25.858Z,98460.98
2019-05-12T11:07:50.828Z,98311.31
2019-05-12T11:10:20.003Z,98458.55
2019-05-12T11:12:46.122Z,98459.35
2019-05-12T11:15:13.625Z,98466.72
2019-05-12T11:17:54.551Z,98469.81
2019-05-12T11:20:21.439Z,98461.49
2019-05-12T11:22:48.224Z,98459.35
2019-05-12T11:25:15.005Z,98465.08
2019-05-12T11:27:43.694Z,98463.78
2019-05-12T11:30:10.306Z,98465.08
2019-05-12T11:32:38.051Z,98463.27
2019-05-12T11:35:04.942Z,98459.35
2019-05-12T11:37:33.701Z,98369.03
2019-05-12T11:40:00.230Z,98464.28
2019-05-12T11:42:27.019Z,98471.12
2019-05-12T11:44:53.796Z,98476.85
2019-05-12T11:47:24.185Z,98475.88
2019-05-12T11:49:49.099Z,98479.47
2019-05-12T11:52:19.088Z,98481.11
2019-05-12T11:54:47.223Z,98478.96
2019-05-12T11:57:13.299Z,98486.00
2019-05-12T11:59:40.230Z,98486.51
2019-05-12T12:02:07.011Z,98495.16
2019-05-12T12:04:45.797Z,98500.38
2019-05-12T12:07:12.574Z,98496.80
2019-05-12T12:09:39.353Z,98500.72
2019-05-12T12:12:07.466Z,98505.11
2019-05-12T12:14:34.554Z,98507.42
2019-05-12T12:17:01.458Z,98515.27
2019-05-12T12:19:35.020Z,98516.58
2019-05-12T12:21:56.736Z,98512.16
2019-05-12T12:24:29.974Z,98512.16
2019-05-12T12:26:53.734Z,98512.95
2019-05-12T12:29:20.673Z,98516.88
2019-05-12T12:31:49.021Z,98514.77
2019-05-12T12:34:23.979Z,98518.19
2019-05-12T12:36:44.284Z,98519.02
2019-05-12T12:39:13.040Z,98525.23
2019-05-12T12:41:44.154Z,98526.86
2019-05-12T12:44:08.070Z,98529.95
2019-05-12T12:46:34.868Z,98545.16
2019-05-12T12:49:06.519Z,98539.61
2019-05-12T12:51:30.458Z,98535.18
2019-05-12T12:53:57.235Z,98546.47
2019-05-12T12:56:29.598Z,98546.95
2019-05-12T12:58:52.534Z,98545.16
2019-05-12T13:01:26.872Z,98353.34
2019-05-12T13:03:47.840Z,98545.64
2019-05-12T13:06:17.348Z,98546.95
2019-05-12T13:08:43.442Z,98551.20
2019-05-12T13:11:10.398Z,98549.09
2019-05-12T13:13:37.190Z,98554.31
2019-05-12T13:16:04.220Z,98550.70
2019-05-12T13:18:33.938Z,98547.28
2019-05-12T13:20:59.546Z,98554.12
2019-05-12T13:23:36.912Z,98566.38
2019-05-12T13:25:54.927Z,98559.84
2019-05-12T13:28:23.534Z,98558.54
2019-05-12T13:30:50.192Z,98552.51
2019-05-12T13:33:18.425Z,98561.16
2019-05-12T13:35:50.230Z,98557.41
2019-05-12T13:38:14.485Z,98562.16
2019-05-12T13:40:41.518Z,98561.66
2019-05-12T13:43:09.377Z,98563.95
2019-05-12T13:45:36.796Z,98561.33
2019-05-12T13:48:03.963Z,98562.63
2019-05-12T13:50:30.967Z,98563.95
2019-05-12T13:53:01.119Z,98562.16
2019-05-12T13:55:26.319Z,98567.39
2019-05-12T13:57:57.588Z,98590.59
2019-05-12T14:00:21.621Z,98565.25
2019-05-12T14:02:49.025Z,98570.81
2019-05-12T14:05:15.988Z,98561.83
2019-05-12T14:07:43.703Z,98563.47
2019-05-12T14:10:10.748Z,98566.09
2019-05-12T14:12:37.543Z,98573.09
2019-05-12T14:15:04.298Z,98570.01
2019-05-12T14:17:36.194Z,98568.37
2019-05-12T14:19:59.603Z,98565.75
2019-05-12T14:22:26.591Z,98565.25
2019-05-12T14:24:54.106Z,98564.45
2019-05-12T14:27:27.047Z,98563.64
2019-05-12T14:29:49.755Z,98568.37
2019-05-12T14:32:17.277Z,98568.37
2019-05-12T14:34:44.618Z,98571.48
2019-05-12T14:37:13.630Z,98571.48
2019-05-12T14:39:40.165Z,98572.29
2019-05-12T14:42:08.463Z,98570.98
2019-05-12T14:44:43.462Z,98570.48
2019-05-12T14:47:03.922Z,98571.78
2019-05-12T14:49:30.749Z,98578.02
2019-05-12T14:51:57.528Z,98580.47
2019-05-12T14:54:24.303Z,98593.20
2019-05-12T14:56:53.650Z,98576.21
2019-05-12T14:59:19.706Z,98568.87
2019-05-12T15:01:57.119Z,98579.83
2019-05-12T15:04:19.475Z,98570.98
2019-05-12T15:06:44.316Z,98575.41
2019-05-12T15:09:16.422Z,98581.44
2019-05-12T15:11:39.780Z,98584.06
2019-05-12T15:14:06.555Z,98587.48
2019-05-12T15:16:40.368Z,98589.28
2019-05-12T15:19:03.404Z,98595.32
2019-05-12T15:21:31.418Z,98597.46
2019-05-12T15:23:58.347Z,98639.47
2019-05-12T15:26:25.130Z,98596.33
2019-05-12T15:28:54.066Z,98599.24
2019-05-12T15:31:20.420Z,98610.53
2019-05-12T15:33:47.198Z,98603.17
2019-05-12T15:36:13.969Z,98609.70
2019-05-12T15:38:40.764Z,98605.48
2019-05-12T15:41:10.774Z,98601.56
2019-05-12T15:43:44.218Z,98600.08
2019-05-12T15:46:04.562Z,98601.05
2019-05-12T15:48:34.025Z,98605.78
2019-05-12T15:51:05.206Z,98607.09
2019-05-12T15:53:28.362Z,98613.63
2019-05-12T15:55:55.211Z,98611.52
2019-05-12T15:58:24.546Z,98623.11
2019-05-12T16:00:50.767Z,98617.88
2019-05-12T16:03:17.559Z,98621.00
2019-05-12T16:05:44.535Z,98618.85
2019-05-12T16:08:14.102Z,98620.49
2019-05-12T16:10:39.907Z,98623.11
2019-05-12T16:13:06.688Z,98626.23
2019-05-12T16:15:34.015Z,98630.63
2019-05-12T16:18:05.740Z,98624.08
2019-05-12T16:20:30.520Z,98635.38
2019-05-12T16:22:57.289Z,98630.63
2019-05-12T16:25:27.342Z,98629.81
2019-05-12T16:27:52.860Z,98625.89
2019-05-12T16:30:20.397Z,98638.47
2019-05-12T16:32:48.214Z,98636.36
2019-05-12T16:35:20.151Z,98635.05
2019-05-12T16:37:44.296Z,98661.53
2019-05-12T16:40:13.414Z,98646.01
2019-05-12T16:42:40.923Z,98650.73
2019-05-12T16:45:10.236Z,98650.73
2019-05-12T16:47:37.037Z,98652.24
2019-05-12T16:50:08.492Z,98654.36
2019-05-12T16:52:40.363Z,98658.28
2019-05-12T16:55:03.515Z,98663.01
2019-05-12T16:57:29.586Z,98659.08
2019-05-12T17:00:05.338Z,98655.97
2019-05-12T17:02:37.568Z,98701.23
2019-05-12T17:04:54.038Z,98664.95
2019-05-12T17:07:21.089Z,98665.45
2019-05-12T17:09:49.437Z,98666.93
2019-05-12T17:12:16.259Z,98670.34
2019-05-12T17:14:48.530Z,98665.12
2019-05-12T17:17:11.560Z,98669.55
2019-05-12T17:19:38.368Z,98672.96
2019-05-12T17:22:05.142Z,98677.89
2019-05-12T17:24:34.276Z,98672.66
2019-05-12T17:27:00.429Z,98675.78
2019-05-12T17:29:27.229Z,98682.81
2019-05-12T17:31:54.020Z,98678.39
2019-05-12T17:34:23.432Z,98689.36
2019-05-12T17:36:50.159Z,98686.23
2019-05-12T17:39:17.842Z,98685.94
2019-05-12T17:41:45.732Z,98687.74
2019-05-12T17:44:13.600Z,98689.05
2019-05-12T17:46:40.689Z,98699.01
2019-05-12T17:49:07.460Z,98701.82
2019-05-12T17:51:34.253Z,98703.94
2019-05-12T17:54:03.736Z,98707.86
2019-05-12T17:56:34.193Z,98719.63
2019-05-12T17:58:58.097Z,98717.01
2019-05-12T18:01:31.308Z,98727.97
2019-05-12T18:03:53.583Z,98730.08
2019-05-12T18:06:26.017Z,98733.70
2019-05-12T18:08:49.020Z,98734.51
2019-05-12T18:11:16.198Z,98731.09
2019-05-12T18:13:43.079Z,98738.43
2019-05-12T18:16:11.485Z,98738.13
2019-05-12T18:18:38.538Z,98739.14
2019-05-12T18:21:05.471Z,98741.59
2019-05-12T18:23:34.427Z,98739.48
2019-05-12T18:26:03.064Z,98749.34
2019-05-12T18:28:29.631Z,98753.77
2019-05-12T18:30:56.487Z,98752.75
2019-05-12T18:33:33.442Z,98768.65
2019-05-12T18:35:54.278Z,98762.51
2019-05-12T18:38:23.949Z,98775.88
2019-05-12T18:40:48.790Z,98777.20
2019-05-12T18:43:15.576Z,98779.50
2019-05-12T18:45:42.663Z,98779.67
2019-05-12T18:48:17.866Z,98787.05
2019-05-12T18:50:37.951Z,98786.71
2019-05-12T18:53:05.032Z,98789.66
2019-05-12T18:55:35.742Z,98789.33
2019-05-12T18:58:00.346Z,98788.83
2019-05-12T19:00:27.187Z,98791.64
2019-05-12T19:02:54.636Z,98799.78
2019-05-12T19:05:27.535Z,98806.32
2019-05-12T19:07:50.079Z,98802.91
2019-05-12T19:10:16.898Z,98810.25
2019-05-12T19:12:44.103Z,98814.87
2019-05-12T19:15:17.151Z,98820.70
2019-05-12T19:17:39.586Z,98818.29
2019-05-12T19:20:06.382Z,98821.71
2019-05-12T19:22:33.635Z,98822.72
2019-05-12T19:25:00.617Z,98826.13
2019-05-12T19:27:27.402Z,98828.25
2019-05-12T19:29:54.659Z,98837.09
2019-05-12T19:32:21.488Z,98831.36
2019-05-12T19:34:48.273Z,98832.67
2019-05-12T19:37:19.451Z,98838.41
2019-05-12T19:39:44.576Z,98831.87
2019-05-12T19:42:17.033Z,98840.21
2019-05-12T19:44:39.944Z,98838.41
2019-05-12T19:47:06.787Z,98845.44
2019-05-12T19:49:46.171Z,98848.66
2019-05-12T19:52:03.532Z,98844.69
2019-05-12T19:54:33.762Z,98844.29
2019-05-12T19:56:59.022Z,98853.64
2019-05-12T19:59:25.798Z,98850.72
2019-05-12T20:01:53.588Z,98854.34
2019-05-12T20:04:30.885Z,98854.03
2019-05-12T20:06:49.059Z,98854.03
2019-05-12T20:09:16.099Z,98863.69
2019-05-12T20:11:43.094Z,98863.69
2019-05-12T20:14:14.897Z,98868.92
2019-05-12T20:16:38.415Z,98870.23
2019-05-12T20:19:05.260Z,98875.45
2019-05-12T20:21:33.859Z,98874.66
2019-05-12T20:24:00.607Z,98873.65
2019-05-12T20:26:27.444Z,98880.41
2019-05-12T20:28:55.528Z,98874.67
2019-05-12T20:31:26.866Z,98878.59
2019-05-12T20:33:57.447Z,98880.41
2019-05-12T20:36:20.769Z,98874.56
2019-05-12T20:38:48.148Z,98875.06
2019-05-12T20:41:20.174Z,98837.91
2019-05-12T20:43:44.283Z,98878.18
2019-05-12T20:46:13.021Z,98882.61
2019-05-12T20:48:39.874Z,98889.95
2019-05-12T20:51:08.655Z,98888.34
2019-05-12T20:53:36.637Z,98888.34
2019-05-12T20:56:04.050Z,98884.72
2019-05-12T20:58:35.330Z,98883.11
2019-05-12T21:01:02.076Z,98887.34
2019-05-12T21:03:27.922Z,98898.30
2019-05-12T21:05:58.112Z,98894.88
2019-05-12T21:08:23.707Z,98900.11
2019-05-12T21:10:50.594Z,98902.22
2019-05-12T21:13:20.321Z,98903.53
2019-05-12T21:15:46.018Z,98904.53
2019-05-12T21:18:14.652Z,98901.41
2019-05-12T21:20:46.255Z,98901.41
2019-05-12T21:23:09.886Z,98901.41
2019-05-12T21:25:36.771Z,98904.84
2019-05-12T21:28:07.699Z,98800.39
2019-05-12T21:30:33.912Z,98898.80
2019-05-12T21:33:01.462Z,98904.53
2019-05-12T21:35:33.753Z,98902.22
2019-05-12T21:37:57.076Z,98902.72
2019-05-12T21:40:30.370Z,98900.91
2019-05-12T21:42:53.717Z,98917.10
2019-05-12T21:45:26.481Z,98910.56
2019-05-12T21:47:49.266Z,98905.84
2019-05-12T21:50:16.058Z,98907.14
2019-05-12T21:52:44.594Z,98905.34
2019-05-12T21:55:13.492Z,98910.56
2019-05-12T21:57:39.969Z,98919.72
2019-05-12T22:00:10.771Z,98924.95
2019-05-12T22:02:35.601Z,98919.72
2019-05-12T22:05:04.173Z,98922.33
2019-05-12T22:07:35.584Z,98924.45
2019-05-12T22:09:59.404Z,98924.95
2019-05-12T22:12:28.467Z,98925.45
2019-05-12T22:14:54.726Z,98930.18
2019-05-12T22:17:23.852Z,98928.88
2019-05-12T22:19:50.062Z,98928.56
2019-05-12T22:22:19.629Z,98927.56
2019-05-12T22:24:45.801Z,98926.25
2019-05-12T22:27:16.026Z,98921.53
2019-05-12T22:29:43.583Z,98927.56
2019-05-12T22:32:09.729Z,98926.25
2019-05-12T22:34:41.852Z,98929.68
2019-05-12T22:37:05.069Z,98926.25
2019-05-12T22:39:34.340Z,98932.80
2019-05-12T22:42:03.556Z,98924.14
2019-05-12T22:44:30.453Z,98931.48
2019-05-12T22:46:57.340Z,98931.48
2019-05-12T22:49:24.199Z,98934.11
2019-05-12T22:51:54.666Z,98928.56
2019-05-12T22:54:19.548Z,98928.88
2019-05-12T22:56:49.730Z,98931.18
2019-05-12T22:59:14.989Z,98931.48
2019-05-12T23:01:44.548Z,98931.48
2019-05-12T23:04:10.414Z,98927.56
2019-05-12T23:06:42.135Z,98931.48
2019-05-12T23:09:05.986Z,98930.18
2019-05-12T23:11:37.708Z,98933.30
2019-05-12T23:14:01.264Z,98929.38
2019-05-12T23:16:29.384Z,98932.80
2019-05-12T23:19:01.399Z,98930.38
2019-05-12T23:21:24.901Z,98930.68
2019-05-12T23:23:57.224Z,98923.84
2019-05-12T23:26:20.294Z,98929.88
2019-05-12T23:28:50.305Z,98930.68
2019-05-12T23:31:19.562Z,98933.30
2019-05-12T23:33:44.237Z,98937.22
2019-05-12T23:36:15.862Z,98935.11
2019-05-12T23:38:39.648Z,98931.18
2019-05-12T23:41:06.429Z,98931.18
2019-05-12T23:43:34.122Z,98933.30
2019-05-12T23:46:01.040Z,98929.38
2019-05-12T23:48:27.866Z,98935.91
2019-05-12T23:50:54.653Z,98931.18
2019-05-12T23:53:21.483Z,98928.26
2019-05-12T23:55:48.285Z,98954.72
2019-05-12T23:58:15.106Z,98929.88
